sensor_id;sensor_type;location;lat;lon;timestamp;P1;durP1;ratioP1;P2;durP2;ratioP2
74538;SDS011;66042;51.090;-115.340;2023-05-07T00:01:41;3.80;;;0.90;;
74538;SDS011;66042;51.090;-115.340;2023-05-07T00:04:18;2.40;;;0.80;;
74538;SDS011;66042;51.090;-115.340;2023-05-07T00:06:48;1.80;;;0.70;;
74538;SDS011;66042;51.090;-115.340;2023-05-07T00:09:15;1.50;;;0.70;;
74538;SDS011;66042;51.090;-115.340;2023-05-07T00:11:43;3.10;;;1.40;;
74538;SDS011;66042;51.090;-115.340;2023-05-07T00:14:10;3.10;;;1.00;;
74538;SDS011;66042;51.090;-115.340;2023-05-07T00:16:39;1.70;;;0.90;;
74538;SDS011;66042;51.090;-115.340;2023-05-07T00:19:06;1.40;;;0.80;;
74538;SDS011;66042;51.090;-115.340;2023-05-07T00:21:33;2.70;;;0.90;;
74538;SDS011;66042;51.090;-115.340;2023-05-07T00:23:59;2.10;;;0.90;;
74538;SDS011;66042;51.090;-115.340;2023-05-07T00:26:26;2.00;;;0.80;;
74538;SDS011;66042;51.090;-115.340;2023-05-07T00:28:53;2.00;;;1.00;;
74538;SDS011;66042;51.090;-115.340;2023-05-07T00:31:20;3.50;;;1.00;;
74538;SDS011;66042;51.090;-115.340;2023-05-07T00:33:48;1.90;;;0.80;;
74538;SDS011;66042;51.090;-115.340;2023-05-07T00:36:17;2.20;;;0.70;;
74538;SDS011;66042;51.090;-115.340;2023-05-07T00:38:44;3.10;;;0.80;;
74538;SDS011;66042;51.090;-115.340;2023-05-07T00:41:11;2.00;;;0.80;;
74538;SDS011;66042;51.090;-115.340;2023-05-07T00:43:38;1.20;;;0.50;;
74538;SDS011;66042;51.090;-115.340;2023-05-07T00:46:04;2.30;;;0.60;;
74538;SDS011;66042;51.090;-115.340;2023-05-07T00:48:33;2.00;;;0.80;;
74538;SDS011;66042;51.090;-115.340;2023-05-07T00:51:00;3.90;;;0.90;;
74538;SDS011;66042;51.090;-115.340;2023-05-07T00:53:27;2.00;;;0.80;;
74538;SDS011;66042;51.090;-115.340;2023-05-07T00:55:55;2.50;;;0.80;;
74538;SDS011;66042;51.090;-115.340;2023-05-07T00:58:22;2.10;;;0.90;;
74538;SDS011;66042;51.090;-115.340;2023-05-07T01:00:49;2.20;;;0.90;;
74538;SDS011;66042;51.090;-115.340;2023-05-07T01:03:16;3.20;;;0.80;;
74538;SDS011;66042;51.090;-115.340;2023-05-07T01:05:44;1.80;;;0.70;;
74538;SDS011;66042;51.090;-115.340;2023-05-07T01:08:14;1.80;;;0.60;;
74538;SDS011;66042;51.090;-115.340;2023-05-07T01:10:42;1.50;;;0.70;;
74538;SDS011;66042;51.090;-115.340;2023-05-07T01:13:10;1.70;;;0.50;;
74538;SDS011;66042;51.090;-115.340;2023-05-07T01:15:38;1.60;;;0.60;;
74538;SDS011;66042;51.090;-115.340;2023-05-07T01:18:08;1.30;;;0.80;;
74538;SDS011;66042;51.090;-115.340;2023-05-07T01:20:36;4.70;;;0.90;;
74538;SDS011;66042;51.090;-115.340;2023-05-07T01:23:05;1.20;;;0.60;;
74538;SDS011;66042;51.090;-115.340;2023-05-07T01:25:33;1.30;;;0.50;;
74538;SDS011;66042;51.090;-115.340;2023-05-07T01:28:01;1.70;;;0.80;;
74538;SDS011;66042;51.090;-115.340;2023-05-07T01:30:28;1.30;;;0.80;;
74538;SDS011;66042;51.090;-115.340;2023-05-07T01:33:06;2.20;;;0.70;;
74538;SDS011;66042;51.090;-115.340;2023-05-07T01:35:39;2.30;;;1.00;;
74538;SDS011;66042;51.090;-115.340;2023-05-07T01:38:08;2.80;;;0.70;;
74538;SDS011;66042;51.090;-115.340;2023-05-07T01:40:35;1.70;;;0.80;;
74538;SDS011;66042;51.090;-115.340;2023-05-07T01:43:03;2.00;;;0.80;;
74538;SDS011;66042;51.090;-115.340;2023-05-07T01:45:31;3.80;;;1.00;;
74538;SDS011;66042;51.090;-115.340;2023-05-07T01:48:01;1.90;;;0.80;;
74538;SDS011;66042;51.090;-115.340;2023-05-07T01:50:31;1.90;;;1.00;;
74538;SDS011;66042;51.090;-115.340;2023-05-07T01:52:59;2.20;;;0.80;;
74538;SDS011;66042;51.090;-115.340;2023-05-07T01:55:28;4.40;;;1.10;;
74538;SDS011;66042;51.090;-115.340;2023-05-07T01:57:55;1.90;;;0.80;;
74538;SDS011;66042;51.090;-115.340;2023-05-07T02:00:22;3.90;;;1.10;;
74538;SDS011;66042;51.090;-115.340;2023-05-07T02:02:49;2.40;;;0.80;;
74538;SDS011;66042;51.090;-115.340;2023-05-07T02:05:17;2.50;;;1.10;;
74538;SDS011;66042;51.090;-115.340;2023-05-07T02:07:44;4.40;;;1.00;;
74538;SDS011;66042;51.090;-115.340;2023-05-07T02:10:11;3.30;;;1.00;;
74538;SDS011;66042;51.090;-115.340;2023-05-07T02:12:39;3.00;;;1.00;;
74538;SDS011;66042;51.090;-115.340;2023-05-07T02:15:06;2.90;;;1.10;;
74538;SDS011;66042;51.090;-115.340;2023-05-07T02:17:34;3.20;;;0.60;;
74538;SDS011;66042;51.090;-115.340;2023-05-07T02:20:01;3.10;;;1.00;;
74538;SDS011;66042;51.090;-115.340;2023-05-07T02:22:29;2.10;;;1.20;;
74538;SDS011;66042;51.090;-115.340;2023-05-07T02:24:56;3.10;;;0.90;;
74538;SDS011;66042;51.090;-115.340;2023-05-07T02:27:23;2.60;;;0.70;;
74538;SDS011;66042;51.090;-115.340;2023-05-07T02:29:50;3.50;;;1.30;;
74538;SDS011;66042;51.090;-115.340;2023-05-07T02:32:17;3.30;;;1.20;;
74538;SDS011;66042;51.090;-115.340;2023-05-07T02:34:44;4.30;;;1.10;;
74538;SDS011;66042;51.090;-115.340;2023-05-07T02:37:11;2.40;;;0.80;;
74538;SDS011;66042;51.090;-115.340;2023-05-07T02:39:41;3.20;;;1.10;;
74538;SDS011;66042;51.090;-115.340;2023-05-07T02:42:08;2.40;;;1.00;;
74538;SDS011;66042;51.090;-115.340;2023-05-07T02:44:35;3.20;;;1.10;;
74538;SDS011;66042;51.090;-115.340;2023-05-07T02:47:02;2.60;;;1.10;;
74538;SDS011;66042;51.090;-115.340;2023-05-07T02:49:30;3.90;;;1.10;;
74538;SDS011;66042;51.090;-115.340;2023-05-07T02:51:56;5.00;;;0.90;;
74538;SDS011;66042;51.090;-115.340;2023-05-07T02:54:23;3.40;;;1.30;;
74538;SDS011;66042;51.090;-115.340;2023-05-07T02:56:52;2.40;;;1.20;;
74538;SDS011;66042;51.090;-115.340;2023-05-07T02:59:19;3.30;;;1.00;;
74538;SDS011;66042;51.090;-115.340;2023-05-07T03:01:46;2.80;;;1.00;;
74538;SDS011;66042;51.090;-115.340;2023-05-07T03:04:14;4.30;;;1.20;;
74538;SDS011;66042;51.090;-115.340;2023-05-07T03:06:42;4.70;;;1.20;;
74538;SDS011;66042;51.090;-115.340;2023-05-07T03:09:09;2.10;;;1.10;;
74538;SDS011;66042;51.090;-115.340;2023-05-07T03:11:42;2.70;;;1.00;;
74538;SDS011;66042;51.090;-115.340;2023-05-07T03:14:09;4.10;;;1.00;;
74538;SDS011;66042;51.090;-115.340;2023-05-07T03:16:38;2.10;;;0.80;;
74538;SDS011;66042;51.090;-115.340;2023-05-07T03:19:06;5.00;;;1.20;;
74538;SDS011;66042;51.090;-115.340;2023-05-07T03:21:33;3.20;;;1.20;;
74538;SDS011;66042;51.090;-115.340;2023-05-07T03:24:00;3.70;;;1.20;;
74538;SDS011;66042;51.090;-115.340;2023-05-07T03:26:27;2.80;;;0.90;;
74538;SDS011;66042;51.090;-115.340;2023-05-07T03:28:55;3.50;;;1.20;;
74538;SDS011;66042;51.090;-115.340;2023-05-07T03:31:22;4.60;;;1.30;;
74538;SDS011;66042;51.090;-115.340;2023-05-07T03:33:56;2.50;;;1.10;;
74538;SDS011;66042;51.090;-115.340;2023-05-07T03:36:31;3.30;;;1.10;;
74538;SDS011;66042;51.090;-115.340;2023-05-07T03:39:00;2.10;;;1.00;;
74538;SDS011;66042;51.090;-115.340;2023-05-07T03:41:27;2.80;;;1.10;;
74538;SDS011;66042;51.090;-115.340;2023-05-07T03:43:56;3.50;;;1.00;;
74538;SDS011;66042;51.090;-115.340;2023-05-07T03:46:35;2.40;;;1.40;;
74538;SDS011;66042;51.090;-115.340;2023-05-07T03:49:03;2.50;;;1.00;;
74538;SDS011;66042;51.090;-115.340;2023-05-07T03:51:30;3.40;;;0.70;;
74538;SDS011;66042;51.090;-115.340;2023-05-07T03:54:00;2.90;;;1.50;;
74538;SDS011;66042;51.090;-115.340;2023-05-07T03:56:27;5.70;;;1.20;;
74538;SDS011;66042;51.090;-115.340;2023-05-07T03:58:55;1.90;;;1.10;;
74538;SDS011;66042;51.090;-115.340;2023-05-07T04:01:22;3.30;;;1.10;;
74538;SDS011;66042;51.090;-115.340;2023-05-07T04:03:55;5.10;;;1.00;;
74538;SDS011;66042;51.090;-115.340;2023-05-07T04:06:22;4.80;;;1.10;;
74538;SDS011;66042;51.090;-115.340;2023-05-07T04:08:49;3.00;;;1.20;;
74538;SDS011;66042;51.090;-115.340;2023-05-07T04:11:16;3.20;;;1.30;;
74538;SDS011;66042;51.090;-115.340;2023-05-07T04:13:43;4.00;;;1.60;;
74538;SDS011;66042;51.090;-115.340;2023-05-07T04:16:13;3.80;;;1.00;;
74538;SDS011;66042;51.090;-115.340;2023-05-07T04:18:40;3.50;;;1.40;;
74538;SDS011;66042;51.090;-115.340;2023-05-07T04:21:18;3.20;;;1.10;;
74538;SDS011;66042;51.090;-115.340;2023-05-07T04:23:52;3.60;;;1.10;;
74538;SDS011;66042;51.090;-115.340;2023-05-07T04:26:20;4.10;;;1.50;;
74538;SDS011;66042;51.090;-115.340;2023-05-07T04:28:56;3.20;;;1.10;;
74538;SDS011;66042;51.090;-115.340;2023-05-07T04:31:25;3.20;;;0.80;;
74538;SDS011;66042;51.090;-115.340;2023-05-07T04:33:52;2.50;;;1.10;;
74538;SDS011;66042;51.090;-115.340;2023-05-07T04:36:20;2.60;;;1.20;;
74538;SDS011;66042;51.090;-115.340;2023-05-07T04:38:47;6.90;;;1.10;;
74538;SDS011;66042;51.090;-115.340;2023-05-07T04:41:15;5.10;;;1.10;;
74538;SDS011;66042;51.090;-115.340;2023-05-07T04:43:44;2.90;;;1.30;;
74538;SDS011;66042;51.090;-115.340;2023-05-07T04:46:14;3.80;;;0.90;;
74538;SDS011;66042;51.090;-115.340;2023-05-07T04:48:44;3.70;;;1.40;;
74538;SDS011;66042;51.090;-115.340;2023-05-07T04:51:14;3.60;;;1.20;;
74538;SDS011;66042;51.090;-115.340;2023-05-07T04:53:41;3.40;;;1.30;;
74538;SDS011;66042;51.090;-115.340;2023-05-07T04:56:09;3.60;;;1.10;;
74538;SDS011;66042;51.090;-115.340;2023-05-07T04:58:37;3.80;;;1.20;;
74538;SDS011;66042;51.090;-115.340;2023-05-07T05:01:07;3.40;;;1.60;;
74538;SDS011;66042;51.090;-115.340;2023-05-07T05:03:34;2.40;;;1.00;;
74538;SDS011;66042;51.090;-115.340;2023-05-07T05:06:01;3.40;;;1.10;;
74538;SDS011;66042;51.090;-115.340;2023-05-07T05:08:30;2.10;;;1.10;;
74538;SDS011;66042;51.090;-115.340;2023-05-07T05:11:00;3.40;;;1.00;;
74538;SDS011;66042;51.090;-115.340;2023-05-07T05:13:30;2.50;;;1.10;;
74538;SDS011;66042;51.090;-115.340;2023-05-07T05:15:57;2.30;;;1.00;;
74538;SDS011;66042;51.090;-115.340;2023-05-07T05:18:25;2.30;;;1.20;;
74538;SDS011;66042;51.090;-115.340;2023-05-07T05:20:56;2.20;;;1.00;;
74538;SDS011;66042;51.090;-115.340;2023-05-07T05:23:23;3.90;;;1.40;;
74538;SDS011;66042;51.090;-115.340;2023-05-07T05:25:55;2.80;;;1.20;;
74538;SDS011;66042;51.090;-115.340;2023-05-07T05:28:24;3.50;;;1.20;;
74538;SDS011;66042;51.090;-115.340;2023-05-07T05:30:51;2.60;;;1.10;;
74538;SDS011;66042;51.090;-115.340;2023-05-07T05:33:18;3.60;;;1.40;;
74538;SDS011;66042;51.090;-115.340;2023-05-07T05:35:45;3.70;;;1.20;;
74538;SDS011;66042;51.090;-115.340;2023-05-07T05:38:15;4.00;;;1.40;;
74538;SDS011;66042;51.090;-115.340;2023-05-07T05:40:42;5.00;;;1.70;;
74538;SDS011;66042;51.090;-115.340;2023-05-07T05:43:13;7.60;;;2.30;;
74538;SDS011;66042;51.090;-115.340;2023-05-07T05:45:40;4.80;;;1.40;;
74538;SDS011;66042;51.090;-115.340;2023-05-07T05:48:10;3.90;;;1.70;;
74538;SDS011;66042;51.090;-115.340;2023-05-07T05:50:38;3.20;;;1.60;;
74538;SDS011;66042;51.090;-115.340;2023-05-07T05:53:08;6.40;;;1.80;;
74538;SDS011;66042;51.090;-115.340;2023-05-07T05:55:34;3.20;;;1.40;;
74538;SDS011;66042;51.090;-115.340;2023-05-07T05:58:01;4.30;;;1.70;;
74538;SDS011;66042;51.090;-115.340;2023-05-07T06:00:28;3.00;;;1.50;;
74538;SDS011;66042;51.090;-115.340;2023-05-07T06:02:56;5.40;;;1.30;;
74538;SDS011;66042;51.090;-115.340;2023-05-07T06:05:23;3.60;;;1.70;;
74538;SDS011;66042;51.090;-115.340;2023-05-07T06:07:50;2.90;;;1.40;;
74538;SDS011;66042;51.090;-115.340;2023-05-07T06:10:19;5.00;;;1.20;;
74538;SDS011;66042;51.090;-115.340;2023-05-07T06:12:46;2.10;;;1.30;;
74538;SDS011;66042;51.090;-115.340;2023-05-07T06:15:13;2.40;;;1.40;;
74538;SDS011;66042;51.090;-115.340;2023-05-07T06:17:39;4.40;;;1.70;;
74538;SDS011;66042;51.090;-115.340;2023-05-07T06:20:07;3.40;;;1.40;;
74538;SDS011;66042;51.090;-115.340;2023-05-07T06:22:34;6.10;;;2.40;;
74538;SDS011;66042;51.090;-115.340;2023-05-07T06:25:01;3.80;;;1.60;;
74538;SDS011;66042;51.090;-115.340;2023-05-07T06:27:28;4.80;;;1.90;;
74538;SDS011;66042;51.090;-115.340;2023-05-07T06:29:56;9.30;;;2.40;;
74538;SDS011;66042;51.090;-115.340;2023-05-07T06:32:22;4.80;;;2.40;;
74538;SDS011;66042;51.090;-115.340;2023-05-07T06:34:49;5.50;;;2.60;;
74538;SDS011;66042;51.090;-115.340;2023-05-07T06:37:16;7.20;;;2.70;;
74538;SDS011;66042;51.090;-115.340;2023-05-07T06:39:43;5.90;;;2.60;;
74538;SDS011;66042;51.090;-115.340;2023-05-07T06:42:10;5.30;;;3.00;;
74538;SDS011;66042;51.090;-115.340;2023-05-07T06:44:40;6.00;;;2.20;;
74538;SDS011;66042;51.090;-115.340;2023-05-07T06:47:07;3.60;;;2.30;;
74538;SDS011;66042;51.090;-115.340;2023-05-07T06:49:35;5.10;;;1.70;;
74538;SDS011;66042;51.090;-115.340;2023-05-07T06:52:05;6.40;;;2.40;;
74538;SDS011;66042;51.090;-115.340;2023-05-07T06:54:32;5.70;;;2.20;;
74538;SDS011;66042;51.090;-115.340;2023-05-07T06:57:02;4.30;;;1.90;;
74538;SDS011;66042;51.090;-115.340;2023-05-07T06:59:29;5.20;;;1.70;;
74538;SDS011;66042;51.090;-115.340;2023-05-07T07:01:59;3.20;;;1.40;;
74538;SDS011;66042;51.090;-115.340;2023-05-07T07:04:26;3.90;;;1.80;;
74538;SDS011;66042;51.090;-115.340;2023-05-07T07:06:56;8.40;;;2.40;;
74538;SDS011;66042;51.090;-115.340;2023-05-07T07:09:23;5.30;;;1.70;;
74538;SDS011;66042;51.090;-115.340;2023-05-07T07:11:52;6.70;;;1.60;;
74538;SDS011;66042;51.090;-115.340;2023-05-07T07:14:18;6.50;;;1.70;;
74538;SDS011;66042;51.090;-115.340;2023-05-07T07:16:46;5.50;;;2.20;;
74538;SDS011;66042;51.090;-115.340;2023-05-07T07:19:13;6.40;;;2.40;;
74538;SDS011;66042;51.090;-115.340;2023-05-07T07:21:44;4.50;;;2.00;;
74538;SDS011;66042;51.090;-115.340;2023-05-07T07:24:12;7.60;;;2.90;;
74538;SDS011;66042;51.090;-115.340;2023-05-07T07:26:47;6.50;;;3.10;;
74538;SDS011;66042;51.090;-115.340;2023-05-07T07:29:14;9.80;;;3.60;;
74538;SDS011;66042;51.090;-115.340;2023-05-07T07:31:40;6.80;;;2.70;;
74538;SDS011;66042;51.090;-115.340;2023-05-07T07:34:07;8.60;;;2.50;;
74538;SDS011;66042;51.090;-115.340;2023-05-07T07:36:37;6.60;;;2.80;;
74538;SDS011;66042;51.090;-115.340;2023-05-07T07:39:08;6.80;;;2.70;;
74538;SDS011;66042;51.090;-115.340;2023-05-07T07:41:35;7.80;;;2.40;;
74538;SDS011;66042;51.090;-115.340;2023-05-07T07:44:03;7.10;;;2.90;;
74538;SDS011;66042;51.090;-115.340;2023-05-07T07:46:34;7.60;;;3.00;;
74538;SDS011;66042;51.090;-115.340;2023-05-07T07:49:04;5.90;;;2.60;;
74538;SDS011;66042;51.090;-115.340;2023-05-07T07:51:31;7.00;;;2.90;;
74538;SDS011;66042;51.090;-115.340;2023-05-07T07:53:58;10.30;;;2.90;;
74538;SDS011;66042;51.090;-115.340;2023-05-07T07:56:25;8.00;;;2.60;;
74538;SDS011;66042;51.090;-115.340;2023-05-07T07:58:55;6.30;;;2.40;;
74538;SDS011;66042;51.090;-115.340;2023-05-07T08:01:22;7.40;;;2.60;;
74538;SDS011;66042;51.090;-115.340;2023-05-07T08:03:49;10.10;;;2.50;;
74538;SDS011;66042;51.090;-115.340;2023-05-07T08:06:16;6.40;;;2.80;;
74538;SDS011;66042;51.090;-115.340;2023-05-07T08:08:46;8.30;;;2.20;;
74538;SDS011;66042;51.090;-115.340;2023-05-07T08:11:13;3.80;;;2.10;;
74538;SDS011;66042;51.090;-115.340;2023-05-07T08:13:41;5.80;;;1.80;;
74538;SDS011;66042;51.090;-115.340;2023-05-07T08:16:08;6.00;;;2.50;;
74538;SDS011;66042;51.090;-115.340;2023-05-07T08:18:35;5.30;;;2.00;;
74538;SDS011;66042;51.090;-115.340;2023-05-07T08:21:03;4.90;;;2.40;;
74538;SDS011;66042;51.090;-115.340;2023-05-07T08:23:30;4.40;;;1.90;;
74538;SDS011;66042;51.090;-115.340;2023-05-07T08:26:00;5.30;;;2.40;;
74538;SDS011;66042;51.090;-115.340;2023-05-07T08:28:27;4.80;;;1.90;;
74538;SDS011;66042;51.090;-115.340;2023-05-07T08:30:54;7.20;;;2.70;;
74538;SDS011;66042;51.090;-115.340;2023-05-07T08:33:23;6.10;;;2.30;;
74538;SDS011;66042;51.090;-115.340;2023-05-07T08:35:50;4.60;;;2.50;;
74538;SDS011;66042;51.090;-115.340;2023-05-07T08:38:17;3.30;;;2.10;;
74538;SDS011;66042;51.090;-115.340;2023-05-07T08:40:44;5.50;;;2.40;;
74538;SDS011;66042;51.090;-115.340;2023-05-07T08:43:14;6.70;;;2.40;;
74538;SDS011;66042;51.090;-115.340;2023-05-07T08:45:41;4.70;;;2.70;;
74538;SDS011;66042;51.090;-115.340;2023-05-07T08:48:17;6.10;;;2.20;;
74538;SDS011;66042;51.090;-115.340;2023-05-07T08:50:51;4.10;;;2.30;;
74538;SDS011;66042;51.090;-115.340;2023-05-07T08:53:19;4.50;;;2.30;;
74538;SDS011;66042;51.090;-115.340;2023-05-07T08:55:47;7.20;;;2.50;;
74538;SDS011;66042;51.090;-115.340;2023-05-07T08:58:18;5.80;;;3.00;;
74538;SDS011;66042;51.090;-115.340;2023-05-07T09:00:47;4.30;;;2.50;;
74538;SDS011;66042;51.090;-115.340;2023-05-07T09:03:14;5.10;;;2.30;;
74538;SDS011;66042;51.090;-115.340;2023-05-07T09:05:41;5.60;;;2.30;;
74538;SDS011;66042;51.090;-115.340;2023-05-07T09:08:14;6.30;;;2.50;;
74538;SDS011;66042;51.090;-115.340;2023-05-07T09:10:42;4.80;;;2.20;;
74538;SDS011;66042;51.090;-115.340;2023-05-07T09:13:11;8.80;;;2.10;;
74538;SDS011;66042;51.090;-115.340;2023-05-07T09:15:46;9.30;;;2.60;;
74538;SDS011;66042;51.090;-115.340;2023-05-07T09:18:14;5.30;;;2.40;;
74538;SDS011;66042;51.090;-115.340;2023-05-07T09:20:44;3.70;;;2.60;;
74538;SDS011;66042;51.090;-115.340;2023-05-07T09:23:11;6.30;;;2.60;;
74538;SDS011;66042;51.090;-115.340;2023-05-07T09:25:41;7.10;;;2.70;;
74538;SDS011;66042;51.090;-115.340;2023-05-07T09:28:07;5.10;;;2.30;;
74538;SDS011;66042;51.090;-115.340;2023-05-07T09:30:36;4.20;;;2.40;;
74538;SDS011;66042;51.090;-115.340;2023-05-07T09:33:03;4.80;;;2.40;;
74538;SDS011;66042;51.090;-115.340;2023-05-07T09:35:31;4.00;;;2.50;;
74538;SDS011;66042;51.090;-115.340;2023-05-07T09:37:59;5.80;;;2.60;;
74538;SDS011;66042;51.090;-115.340;2023-05-07T09:40:30;7.10;;;3.00;;
74538;SDS011;66042;51.090;-115.340;2023-05-07T09:43:09;6.10;;;2.20;;
74538;SDS011;66042;51.090;-115.340;2023-05-07T09:45:38;3.60;;;2.20;;
74538;SDS011;66042;51.090;-115.340;2023-05-07T09:48:06;6.10;;;2.60;;
74538;SDS011;66042;51.090;-115.340;2023-05-07T09:50:36;5.00;;;2.30;;
74538;SDS011;66042;51.090;-115.340;2023-05-07T09:53:16;4.70;;;2.20;;
74538;SDS011;66042;51.090;-115.340;2023-05-07T09:55:44;3.90;;;2.40;;
74538;SDS011;66042;51.090;-115.340;2023-05-07T09:58:12;3.90;;;2.40;;
74538;SDS011;66042;51.090;-115.340;2023-05-07T10:00:42;8.80;;;2.70;;
74538;SDS011;66042;51.090;-115.340;2023-05-07T10:03:10;5.80;;;2.30;;
74538;SDS011;66042;51.090;-115.340;2023-05-07T10:05:38;6.30;;;2.80;;
74538;SDS011;66042;51.090;-115.340;2023-05-07T10:08:06;4.60;;;2.20;;
74538;SDS011;66042;51.090;-115.340;2023-05-07T10:10:34;4.90;;;2.40;;
74538;SDS011;66042;51.090;-115.340;2023-05-07T10:13:02;4.50;;;2.40;;
74538;SDS011;66042;51.090;-115.340;2023-05-07T10:15:31;3.90;;;2.50;;
74538;SDS011;66042;51.090;-115.340;2023-05-07T10:17:58;4.90;;;2.00;;
74538;SDS011;66042;51.090;-115.340;2023-05-07T10:20:26;5.20;;;2.20;;
74538;SDS011;66042;51.090;-115.340;2023-05-07T10:22:54;7.10;;;2.40;;
74538;SDS011;66042;51.090;-115.340;2023-05-07T10:25:30;6.40;;;2.70;;
74538;SDS011;66042;51.090;-115.340;2023-05-07T10:28:04;5.10;;;2.60;;
74538;SDS011;66042;51.090;-115.340;2023-05-07T10:33:51;4.80;;;2.00;;
74538;SDS011;66042;51.090;-115.340;2023-05-07T10:36:22;7.70;;;3.20;;
74538;SDS011;66042;51.090;-115.340;2023-05-07T10:38:49;3.90;;;2.40;;
74538;SDS011;66042;51.090;-115.340;2023-05-07T10:41:16;5.30;;;2.10;;
74538;SDS011;66042;51.090;-115.340;2023-05-07T10:43:45;4.50;;;2.20;;
74538;SDS011;66042;51.090;-115.340;2023-05-07T10:46:19;6.50;;;2.20;;
74538;SDS011;66042;51.090;-115.340;2023-05-07T10:51:35;4.90;;;2.20;;
74538;SDS011;66042;51.090;-115.340;2023-05-07T10:56:38;4.40;;;2.10;;
74538;SDS011;66042;51.090;-115.340;2023-05-07T11:02:03;4.50;;;2.10;;
74538;SDS011;66042;51.090;-115.340;2023-05-07T11:04:32;4.80;;;2.00;;
74538;SDS011;66042;51.090;-115.340;2023-05-07T11:09:54;4.70;;;1.80;;
74538;SDS011;66042;51.090;-115.340;2023-05-07T11:15:10;6.70;;;2.10;;
74538;SDS011;66042;51.090;-115.340;2023-05-07T11:17:57;5.30;;;2.20;;
74538;SDS011;66042;51.090;-115.340;2023-05-07T11:20:55;4.20;;;2.00;;
74538;SDS011;66042;51.090;-115.340;2023-05-07T11:26:07;3.90;;;2.20;;
74538;SDS011;66042;51.090;-115.340;2023-05-07T11:28:42;5.70;;;2.40;;
74538;SDS011;66042;51.090;-115.340;2023-05-07T11:31:10;4.90;;;2.40;;
74538;SDS011;66042;51.090;-115.340;2023-05-07T11:33:38;4.40;;;2.20;;
74538;SDS011;66042;51.090;-115.340;2023-05-07T11:36:05;3.40;;;2.20;;
74538;SDS011;66042;51.090;-115.340;2023-05-07T11:38:38;4.30;;;3.20;;
74538;SDS011;66042;51.090;-115.340;2023-05-07T11:41:07;8.40;;;4.60;;
74538;SDS011;66042;51.090;-115.340;2023-05-07T11:43:34;7.20;;;4.70;;
74538;SDS011;66042;51.090;-115.340;2023-05-07T11:46:12;6.00;;;4.40;;
74538;SDS011;66042;51.090;-115.340;2023-05-07T11:48:40;8.40;;;5.30;;
74538;SDS011;66042;51.090;-115.340;2023-05-07T11:51:07;7.60;;;5.20;;
74538;SDS011;66042;51.090;-115.340;2023-05-07T11:53:42;8.80;;;6.00;;
74538;SDS011;66042;51.090;-115.340;2023-05-07T11:56:19;11.10;;;6.40;;
74538;SDS011;66042;51.090;-115.340;2023-05-07T11:58:47;10.70;;;6.40;;
74538;SDS011;66042;51.090;-115.340;2023-05-07T12:01:15;9.10;;;6.00;;
74538;SDS011;66042;51.090;-115.340;2023-05-07T12:03:43;9.40;;;6.20;;
74538;SDS011;66042;51.090;-115.340;2023-05-07T12:06:12;8.80;;;5.30;;
74538;SDS011;66042;51.090;-115.340;2023-05-07T12:08:44;10.60;;;6.50;;
74538;SDS011;66042;51.090;-115.340;2023-05-07T12:11:23;7.70;;;5.70;;
74538;SDS011;66042;51.090;-115.340;2023-05-07T12:13:53;8.30;;;5.60;;
74538;SDS011;66042;51.090;-115.340;2023-05-07T12:16:21;8.30;;;4.50;;
74538;SDS011;66042;51.090;-115.340;2023-05-07T12:18:50;9.50;;;5.00;;
74538;SDS011;66042;51.090;-115.340;2023-05-07T12:21:18;10.50;;;5.40;;
74538;SDS011;66042;51.090;-115.340;2023-05-07T12:23:48;10.70;;;6.00;;
74538;SDS011;66042;51.090;-115.340;2023-05-07T12:26:15;8.90;;;5.00;;
74538;SDS011;66042;51.090;-115.340;2023-05-07T12:28:42;7.90;;;4.90;;
74538;SDS011;66042;51.090;-115.340;2023-05-07T12:31:09;9.40;;;4.90;;
74538;SDS011;66042;51.090;-115.340;2023-05-07T12:33:36;15.60;;;7.30;;
74538;SDS011;66042;51.090;-115.340;2023-05-07T12:36:05;10.20;;;7.10;;
74538;SDS011;66042;51.090;-115.340;2023-05-07T12:38:37;9.00;;;6.00;;
74538;SDS011;66042;51.090;-115.340;2023-05-07T12:41:07;12.60;;;6.80;;
74538;SDS011;66042;51.090;-115.340;2023-05-07T12:43:35;9.70;;;6.80;;
74538;SDS011;66042;51.090;-115.340;2023-05-07T12:46:05;8.90;;;6.10;;
74538;SDS011;66042;51.090;-115.340;2023-05-07T12:48:35;12.70;;;6.60;;
74538;SDS011;66042;51.090;-115.340;2023-05-07T12:51:05;12.30;;;6.10;;
74538;SDS011;66042;51.090;-115.340;2023-05-07T12:53:33;11.40;;;6.20;;
74538;SDS011;66042;51.090;-115.340;2023-05-07T12:56:08;12.90;;;6.80;;
74538;SDS011;66042;51.090;-115.340;2023-05-07T12:58:35;10.80;;;5.00;;
74538;SDS011;66042;51.090;-115.340;2023-05-07T13:01:07;7.40;;;3.90;;
74538;SDS011;66042;51.090;-115.340;2023-05-07T13:03:37;7.50;;;3.10;;
74538;SDS011;66042;51.090;-115.340;2023-05-07T13:06:08;6.40;;;2.80;;
74538;SDS011;66042;51.090;-115.340;2023-05-07T13:08:41;9.50;;;3.70;;
74538;SDS011;66042;51.090;-115.340;2023-05-07T13:11:12;5.10;;;3.00;;
74538;SDS011;66042;51.090;-115.340;2023-05-07T13:13:40;6.40;;;3.30;;
74538;SDS011;66042;51.090;-115.340;2023-05-07T13:16:09;9.10;;;3.30;;
74538;SDS011;66042;51.090;-115.340;2023-05-07T13:18:38;5.90;;;3.20;;
74538;SDS011;66042;51.090;-115.340;2023-05-07T13:21:06;6.20;;;4.30;;
74538;SDS011;66042;51.090;-115.340;2023-05-07T13:23:33;6.40;;;3.20;;
74538;SDS011;66042;51.090;-115.340;2023-05-07T13:26:00;7.90;;;3.90;;
74538;SDS011;66042;51.090;-115.340;2023-05-07T13:28:27;8.60;;;4.40;;
74538;SDS011;66042;51.090;-115.340;2023-05-07T13:30:54;10.20;;;4.90;;
74538;SDS011;66042;51.090;-115.340;2023-05-07T13:33:21;6.60;;;4.20;;
74538;SDS011;66042;51.090;-115.340;2023-05-07T13:35:49;7.40;;;4.60;;
74538;SDS011;66042;51.090;-115.340;2023-05-07T13:38:16;6.80;;;4.40;;
74538;SDS011;66042;51.090;-115.340;2023-05-07T13:40:43;7.50;;;4.50;;
74538;SDS011;66042;51.090;-115.340;2023-05-07T13:43:10;10.20;;;5.00;;
74538;SDS011;66042;51.090;-115.340;2023-05-07T13:45:36;9.20;;;5.30;;
74538;SDS011;66042;51.090;-115.340;2023-05-07T13:48:03;8.70;;;5.40;;
74538;SDS011;66042;51.090;-115.340;2023-05-07T13:50:31;12.40;;;6.00;;
74538;SDS011;66042;51.090;-115.340;2023-05-07T13:52:58;10.10;;;5.70;;
74538;SDS011;66042;51.090;-115.340;2023-05-07T13:55:25;9.10;;;5.60;;
74538;SDS011;66042;51.090;-115.340;2023-05-07T13:57:59;9.00;;;5.90;;
74538;SDS011;66042;51.090;-115.340;2023-05-07T14:00:27;9.70;;;6.10;;
74538;SDS011;66042;51.090;-115.340;2023-05-07T14:02:56;8.60;;;5.90;;
74538;SDS011;66042;51.090;-115.340;2023-05-07T14:05:23;10.10;;;6.00;;
74538;SDS011;66042;51.090;-115.340;2023-05-07T14:07:53;10.00;;;6.40;;
74538;SDS011;66042;51.090;-115.340;2023-05-07T14:10:21;11.70;;;6.10;;
74538;SDS011;66042;51.090;-115.340;2023-05-07T14:12:48;9.50;;;5.50;;
74538;SDS011;66042;51.090;-115.340;2023-05-07T14:15:16;11.20;;;5.90;;
74538;SDS011;66042;51.090;-115.340;2023-05-07T14:17:43;9.60;;;5.30;;
74538;SDS011;66042;51.090;-115.340;2023-05-07T14:20:11;7.70;;;4.50;;
74538;SDS011;66042;51.090;-115.340;2023-05-07T14:22:38;9.50;;;5.30;;
74538;SDS011;66042;51.090;-115.340;2023-05-07T14:25:05;10.90;;;5.30;;
74538;SDS011;66042;51.090;-115.340;2023-05-07T14:27:33;8.70;;;4.80;;
74538;SDS011;66042;51.090;-115.340;2023-05-07T14:30:00;8.00;;;4.70;;
74538;SDS011;66042;51.090;-115.340;2023-05-07T14:32:27;9.40;;;4.30;;
74538;SDS011;66042;51.090;-115.340;2023-05-07T14:34:54;9.00;;;4.50;;
74538;SDS011;66042;51.090;-115.340;2023-05-07T14:37:21;9.10;;;4.80;;